Time,TemperatureF,DewpointF,PressureIn,WindDirection,WindDirectionDegrees,WindSpeedMPH,WindSpeedGustMPH,Humidity,HourlyPrecipIn,Conditions,Clouds,dailyrainin,SoftwareType,DateUTC
2013-03-19 00:00:00,44.1,21.8,30.03,ENE,67,0.0,0.0,41,-99.99,,,0.00,wxRedirect v1.1,2013-03-19 05:00:00,
2013-03-19 00:05:00,43.3,21.7,30.02,ENE,67,0.0,0.0,42,-99.99,,,0.00,wxRedirect v1.1,2013-03-19 05:05:00,
2013-03-19 00:10:00,43.9,22.2,30.02,ENE,67,0.0,0.0,42,-99.99,,,0.00,wxRedirect v1.1,2013-03-19 05:10:00,
2013-03-19 00:16:00,43.9,22.2,30.03,East,90,0.0,0.0,42,-99.99,,,0.00,wxRedirect v1.1,2013-03-19 05:16:00,
2013-03-19 00:21:00,43.7,22.0,30.03,East,90,1.6,1.6,42,-99.99,,,0.00,wxRedirect v1.1,2013-03-19 05:21:00,
2013-03-19 00:26:00,43.5,21.8,30.03,East,90,0.0,9.6,42,-99.99,,,0.00,wxRedirect v1.1,2013-03-19 05:26:00,
2013-03-19 00:31:00,43.3,21.7,30.03,ESE,112,0.0,9.6,42,-99.99,,,0.00,wxRedirect v1.1,2013-03-19 05:31:00,
2013-03-19 00:37:00,43.0,21.4,30.03,East,90,0.0,4.5,42,-99.99,,,0.00,wxRedirect v1.1,2013-03-19 05:37:00,
2013-03-19 00:42:00,42.6,21.6,30.03,ENE,67,0.0,6.0,43,-99.99,,,0.00,wxRedirect v1.1,2013-03-19 05:42:00,
2013-03-19 00:47:00,42.6,21.6,30.03,East,90,3.8,6.0,43,-99.99,,,0.00,wxRedirect v1.1,2013-03-19 05:47:00,
2013-03-19 00:53:00,42.6,21.6,30.03,ESE,112,2.5,3.8,43,-99.99,,,0.00,wxRedirect v1.1,2013-03-19 05:53:00,
2013-03-19 00:58:00,42.4,21.4,30.03,East,90,2.9,4.9,43,-99.99,,,0.00,wxRedirect v1.1,2013-03-19 05:58:00,
2013-03-19 01:03:00,42.3,21.2,30.03,ESE,112,2.9,4.9,43,-99.99,,,0.00,wxRedirect v1.1,2013-03-19 06:03:00,
2013-03-19 01:08:00,41.9,21.4,30.02,ENE,67,5.1,5.1,44,-99.99,,,0.00,wxRedirect v1.1,2013-03-19 06:08:00,
2013-03-19 01:14:00,41.7,21.3,30.02,ENE,67,0.0,5.1,44,-99.99,,,0.00,wxRedirect v1.1,2013-03-19 06:14:00,
2013-03-19 01:19:00,41.5,21.1,30.04,East,90,0.0,0.0,44,-99.99,,,0.00,wxRedirect v1.1,2013-03-19 06:19:00,
2013-03-19 01:24:00,41.5,21.1,30.05,ENE,67,0.0,0.0,44,-99.99,,,0.00,wxRedirect v1.1,2013-03-19 06:24:00,
2013-03-19 01:30:00,41.4,20.9,30.05,ENE,67,0.0,0.0,44,-99.99,,,0.00,wxRedirect v1.1,2013-03-19 06:30:00,
2013-03-19 01:35:00,41.2,21.3,30.06,ENE,67,0.0,0.0,45,-99.99,,,0.00,wxRedirect v1.1,2013-03-19 06:35:00,
2013-03-19 01:40:00,40.8,20.9,30.04,ENE,67,0.0,0.9,45,-99.99,,,0.00,wxRedirect v1.1,2013-03-19 06:40:00,
2013-03-19 01:46:00,40.6,20.8,30.04,ENE,67,1.6,2.7,45,-99.99,,,0.00,wxRedirect v1.1,2013-03-19 06:46:00,
2013-03-19 01:51:00,40.1,20.8,30.05,ENE,67,0.0,8.9,46,-99.99,,,0.00,wxRedirect v1.1,2013-03-19 06:51:00,
2013-03-19 01:56:00,39.9,20.7,30.06,NE,45,4.3,8.9,46,-99.99,,,0.00,wxRedirect v1.1,2013-03-19 06:56:00,
2013-03-19 02:02:00,39.7,20.5,30.06,ENE,67,3.4,4.3,46,-99.99,,,0.00,wxRedirect v1.1,2013-03-19 07:02:00,
2013-03-19 02:07:00,39.4,20.2,30.06,East,90,1.1,4.3,46,-99.99,,,0.00,wxRedirect v1.1,2013-03-19 07:07:00,
2013-03-19 02:12:00,39.0,19.9,30.06,East,90,6.3,6.3,46,-99.99,,,0.00,wxRedirect v1.1,2013-03-19 07:12:00,
2013-03-19 02:18:00,38.8,20.2,30.06,ENE,67,3.6,6.3,47,-99.99,,,0.00,wxRedirect v1.1,2013-03-19 07:18:00,
2013-03-19 02:23:00,38.5,19.9,30.07,East,90,0.0,6.3,47,-99.99,,,0.00,wxRedirect v1.1,2013-03-19 07:23:00,
2013-03-19 02:28:00,38.3,19.7,30.06,ENE,67,7.2,7.2,47,-99.99,,,0.00,wxRedirect v1.1,2013-03-19 07:28:00,
2013-03-19 02:34:00,37.9,19.4,30.06,East,90,0.0,7.2,47,-99.99,,,0.00,wxRedirect v1.1,2013-03-19 07:34:00,
2013-03-19 02:39:00,37.8,19.2,30.06,SE,135,5.8,7.2,47,-99.99,,,0.00,wxRedirect v1.1,2013-03-19 07:39:00,
2013-03-19 02:44:00,37.6,19.1,30.06,ENE,67,1.1,5.8,47,-99.99,,,0.00,wxRedirect v1.1,2013-03-19 07:44:00,
2013-03-19 02:50:00,37.2,18.8,30.06,East,90,7.6,7.6,47,-99.99,,,0.00,wxRedirect v1.1,2013-03-19 07:50:00,
2013-03-19 02:55:00,37.2,19.3,30.07,ENE,67,4.9,8.5,48,-99.99,,,0.00,wxRedirect v1.1,2013-03-19 07:55:00,
2013-03-19 03:00:00,36.9,19.0,30.06,ENE,67,1.3,8.5,48,-99.99,,,0.00,wxRedirect v1.1,2013-03-19 08:00:00,
2013-03-19 03:06:00,36.7,18.8,30.08,ENE,67,2.9,4.9,48,-99.99,,,0.00,wxRedirect v1.1,2013-03-19 08:06:00,
2013-03-19 03:11:00,36.5,18.6,30.07,East,90,11.0,11.0,48,-99.99,,,0.00,wxRedirect v1.1,2013-03-19 08:11:00,
2013-03-19 03:16:00,36.3,18.5,30.07,NE,45,5.8,11.0,48,-99.99,,,0.00,wxRedirect v1.1,2013-03-19 08:16:00,
2013-03-19 03:22:00,36.3,18.5,30.08,ENE,67,6.9,6.9,48,-99.99,,,0.00,wxRedirect v1.1,2013-03-19 08:22:00,
2013-03-19 03:27:00,36.1,18.3,30.08,ENE,67,0.9,6.9,48,-99.99,,,0.00,wxRedirect v1.1,2013-03-19 08:27:00,
2013-03-19 03:33:00,36.0,18.1,30.08,ENE,67,2.9,6.9,48,-99.99,,,0.00,wxRedirect v1.1,2013-03-19 08:33:00,
2013-03-19 03:38:00,35.8,18.0,30.08,ENE,67,3.1,4.3,48,-99.99,,,0.00,wxRedirect v1.1,2013-03-19 08:38:00,
2013-03-19 03:44:00,35.8,18.0,30.08,ENE,67,3.4,3.4,48,-99.99,,,0.00,wxRedirect v1.1,2013-03-19 08:44:00,
2013-03-19 03:49:00,35.4,18.2,30.07,ENE,67,1.6,3.4,49,-99.99,,,0.00,wxRedirect v1.1,2013-03-19 08:49:00,
2013-03-19 03:54:00,34.9,17.1,30.07,ENE,67,1.8,2.9,48,-99.99,,,0.00,wxRedirect v1.1,2013-03-19 08:54:00,
2013-03-19 03:59:00,35.2,17.5,30.07,NE,45,2.7,2.7,48,-99.99,,,0.00,wxRedirect v1.1,2013-03-19 08:59:00,
2013-03-19 04:05:00,35.2,18.0,30.07,NE,45,0.7,2.7,49,-99.99,,,0.00,wxRedirect v1.1,2013-03-19 09:05:00,
2013-03-19 04:10:00,34.9,17.6,30.08,ENE,67,0.0,1.6,49,-99.99,,,0.00,wxRedirect v1.1,2013-03-19 09:10:00,
2013-03-19 04:15:00,34.9,17.6,30.08,East,90,0.9,1.6,49,-99.99,,,0.00,wxRedirect v1.1,2013-03-19 09:15:00,
2013-03-19 04:21:00,34.7,17.4,30.08,ENE,67,1.3,2.2,49,-99.99,,,0.00,wxRedirect v1.1,2013-03-19 09:21:00,
2013-03-19 04:26:00,34.5,17.3,30.08,ENE,67,0.0,2.2,49,-99.99,,,0.00,wxRedirect v1.1,2013-03-19 09:26:00,
2013-03-19 04:32:00,34.3,17.1,30.08,ENE,67,2.7,4.0,49,-99.99,,,0.00,wxRedirect v1.1,2013-03-19 09:32:00,
2013-03-19 04:37:00,34.3,17.6,30.08,East,90,0.0,4.0,50,-99.99,,,0.00,wxRedirect v1.1,2013-03-19 09:37:00,
2013-03-19 04:42:00,34.3,17.6,30.08,East,90,0.9,2.2,50,-99.99,,,0.00,wxRedirect v1.1,2013-03-19 09:42:00,
2013-03-19 04:48:00,34.3,17.6,30.08,ESE,112,1.8,1.8,50,-99.99,,,0.00,wxRedirect v1.1,2013-03-19 09:48:00,
2013-03-19 04:53:00,34.2,17.4,30.09,East,90,0.0,3.1,50,-99.99,,,0.00,wxRedirect v1.1,2013-03-19 09:53:00,
2013-03-19 04:58:00,34.2,17.4,30.09,ENE,67,4.7,4.7,50,-99.99,,,0.00,wxRedirect v1.1,2013-03-19 09:58:00,
2013-03-19 05:03:00,34.0,17.2,30.09,East,90,0.0,4.7,50,-99.99,,,0.00,wxRedirect v1.1,2013-03-19 10:03:00,
2013-03-19 05:09:00,34.0,17.2,30.10,East,90,0.0,4.7,50,-99.99,,,0.00,wxRedirect v1.1,2013-03-19 10:09:00,
2013-03-19 05:14:00,33.8,17.1,30.10,ENE,67,0.0,2.7,50,-99.99,,,0.00,wxRedirect v1.1,2013-03-19 10:14:00,
2013-03-19 05:20:00,33.6,16.9,30.10,ENE,67,0.0,2.7,50,-99.99,,,0.00,wxRedirect v1.1,2013-03-19 10:20:00,
2013-03-19 05:25:00,33.6,17.3,30.10,NE,45,0.0,3.6,51,-99.99,,,0.00,wxRedirect v1.1,2013-03-19 10:25:00,
2013-03-19 05:30:00,33.6,17.3,30.10,ENE,67,0.0,3.6,51,-99.99,,,0.00,wxRedirect v1.1,2013-03-19 10:30:00,
2013-03-19 05:35:00,33.4,17.2,30.10,East,90,3.4,4.0,51,-99.99,,,0.00,wxRedirect v1.1,2013-03-19 10:35:00,
2013-03-19 05:41:00,33.3,17.0,30.11,ENE,67,0.0,5.8,51,-99.99,,,0.00,wxRedirect v1.1,2013-03-19 10:41:00,
2013-03-19 05:47:00,33.1,16.8,30.11,East,90,0.0,5.8,51,-99.99,,,0.00,wxRedirect v1.1,2013-03-19 10:47:00,
2013-03-19 05:52:00,33.1,17.3,30.10,ENE,67,0.0,2.2,52,-99.99,,,0.00,wxRedirect v1.1,2013-03-19 10:52:00,
2013-03-19 05:57:00,32.9,17.1,30.10,ENE,67,0.7,1.8,52,-99.99,,,0.00,wxRedirect v1.1,2013-03-19 10:57:00,
2013-03-19 06:03:00,32.9,17.1,30.10,ENE,67,0.4,1.8,52,-99.99,,,0.00,wxRedirect v1.1,2013-03-19 11:03:00,
2013-03-19 06:08:00,32.7,17.0,30.10,East,90,1.1,1.8,52,-99.99,,,0.00,wxRedirect v1.1,2013-03-19 11:08:00,
2013-03-19 06:13:00,32.7,17.0,30.11,East,90,2.7,2.7,52,-99.99,,,0.00,wxRedirect v1.1,2013-03-19 11:13:00,
2013-03-19 06:19:00,32.7,17.0,30.11,East,90,4.5,4.5,52,-99.99,,,0.00,wxRedirect v1.1,2013-03-19 11:19:00,
2013-03-19 06:24:00,32.7,17.0,30.11,East,90,1.1,4.5,52,-99.99,,,0.00,wxRedirect v1.1,2013-03-19 11:24:00,
2013-03-19 06:29:00,32.5,16.8,30.12,East,90,0.0,1.1,52,-99.99,,,0.00,wxRedirect v1.1,2013-03-19 11:29:00,
2013-03-19 06:35:00,32.5,16.8,30.12,ESE,112,1.8,1.8,52,-99.99,,,0.00,wxRedirect v1.1,2013-03-19 11:35:00,
2013-03-19 06:40:00,32.4,17.1,30.12,East,90,1.3,3.4,53,-99.99,,,0.00,wxRedirect v1.1,2013-03-19 11:40:00,
2013-03-19 06:45:00,32.2,16.9,30.13,East,90,0.0,3.4,53,-99.99,,,0.00,wxRedirect v1.1,2013-03-19 11:45:00,
2013-03-19 06:51:00,32.2,16.9,30.13,East,90,0.0,2.2,53,-99.99,,,0.00,wxRedirect v1.1,2013-03-19 11:51:00,
2013-03-19 06:56:00,32.2,16.9,30.13,ESE,112,3.6,3.6,53,-99.99,,,0.00,wxRedirect v1.1,2013-03-19 11:56:00,
2013-03-19 07:01:00,32.2,16.9,30.13,ESE,112,2.9,3.6,53,-99.99,,,0.00,wxRedirect v1.1,2013-03-19 12:01:00,
2013-03-19 07:07:00,32.2,16.9,30.13,East,90,0.0,5.6,53,-99.99,,,0.00,wxRedirect v1.1,2013-03-19 12:07:00,
2013-03-19 07:12:00,32.2,16.5,30.14,East,90,0.0,5.6,52,-99.99,,,0.00,wxRedirect v1.1,2013-03-19 12:12:00,
2013-03-19 07:17:00,32.2,16.9,30.13,ESE,112,0.0,0.9,53,-99.99,,,0.00,wxRedirect v1.1,2013-03-19 12:17:00,
2013-03-19 07:23:00,31.8,16.1,30.14,East,90,0.0,0.0,52,-99.99,,,0.00,wxRedirect v1.1,2013-03-19 12:23:00,
2013-03-19 07:28:00,32.2,16.9,30.14,East,90,0.0,2.2,53,-99.99,,,0.00,wxRedirect v1.1,2013-03-19 12:28:00,
2013-03-19 07:33:00,32.2,16.9,30.14,East,90,0.0,2.2,53,-99.99,,,0.00,wxRedirect v1.1,2013-03-19 12:33:00,
2013-03-19 07:39:00,32.2,16.9,30.14,East,90,0.0,0.0,53,-99.99,,,0.00,wxRedirect v1.1,2013-03-19 12:39:00,
2013-03-19 07:44:00,32.4,16.6,30.15,East,90,0.0,0.0,52,-99.99,,,0.00,wxRedirect v1.1,2013-03-19 12:44:00,
2013-03-19 07:49:00,32.4,16.6,30.15,East,90,0.0,0.0,52,-99.99,,,0.00,wxRedirect v1.1,2013-03-19 12:49:00,
2013-03-19 07:55:00,32.5,16.8,30.15,East,90,1.6,1.6,52,-99.99,,,0.00,wxRedirect v1.1,2013-03-19 12:55:00,
2013-03-19 08:00:00,32.7,17.0,30.15,ESE,112,0.0,1.6,52,-99.99,,,0.00,wxRedirect v1.1,2013-03-19 13:00:00,
2013-03-19 08:05:00,33.1,16.8,30.14,SSE,157,0.0,4.5,51,-99.99,,,0.00,wxRedirect v1.1,2013-03-19 13:05:00,
2013-03-19 08:11:00,33.6,17.3,30.15,SSE,157,1.3,4.5,51,-99.99,,,0.00,wxRedirect v1.1,2013-03-19 13:11:00,
2013-03-19 08:16:00,34.3,17.6,30.14,ESE,112,2.0,3.6,50,-99.99,,,0.00,wxRedirect v1.1,2013-03-19 13:16:00,
2013-03-19 08:21:00,34.3,17.6,30.14,ESE,112,5.4,5.6,50,-99.99,,,0.00,wxRedirect v1.1,2013-03-19 13:21:00,
2013-03-19 08:27:00,34.9,17.6,30.14,SE,135,0.0,5.6,49,-99.99,,,0.00,wxRedirect v1.1,2013-03-19 13:27:00,
2013-03-19 08:32:00,35.8,18.5,30.14,ESE,112,0.0,3.6,49,-99.99,,,0.00,wxRedirect v1.1,2013-03-19 13:32:00,
2013-03-19 08:37:00,36.7,18.8,30.14,SE,135,5.4,5.4,48,-99.99,,,0.00,wxRedirect v1.1,2013-03-19 13:37:00,
2013-03-19 08:43:00,37.2,18.8,30.15,ENE,67,4.5,5.4,47,-99.99,,,0.00,wxRedirect v1.1,2013-03-19 13:43:00,
2013-03-19 08:48:00,38.1,19.0,30.16,ESE,112,2.0,5.4,46,-99.99,,,0.00,wxRedirect v1.1,2013-03-19 13:48:00,
2013-03-19 08:53:00,38.8,19.7,30.16,East,90,0.0,2.9,46,-99.99,,,0.00,wxRedirect v1.1,2013-03-19 13:53:00,
2013-03-19 08:59:00,39.9,20.1,30.16,ESE,112,1.3,2.9,45,-99.99,,,0.00,wxRedirect v1.1,2013-03-19 13:59:00,
2013-03-19 09:04:00,40.6,20.3,30.17,SE,135,2.9,2.9,44,-99.99,,,0.00,wxRedirect v1.1,2013-03-19 14:04:00,
2013-03-19 09:09:00,41.2,20.2,30.16,ESE,112,2.2,5.4,43,-99.99,,,0.00,wxRedirect v1.1,2013-03-19 14:09:00,
2013-03-19 09:15:00,41.4,20.4,30.16,ESE,112,6.3,6.3,43,-99.99,,,0.00,wxRedirect v1.1,2013-03-19 14:15:00,
2013-03-19 09:20:00,41.4,19.9,30.16,SE,135,5.1,6.3,42,-99.99,,,0.00,wxRedirect v1.1,2013-03-19 14:20:00,
2013-03-19 09:25:00,41.9,19.8,30.16,ESE,112,3.6,5.4,41,-99.99,,,0.00,wxRedirect v1.1,2013-03-19 14:25:00,
2013-03-19 09:31:00,42.6,20.5,30.16,East,90,6.0,6.0,41,-99.99,,,0.00,wxRedirect v1.1,2013-03-19 14:31:00,
2013-03-19 09:36:00,43.0,20.3,30.16,East,90,10.1,10.1,40,-99.99,,,0.00,wxRedirect v1.1,2013-03-19 14:36:00,
2013-03-19 09:41:00,43.5,20.8,30.16,SSE,157,0.2,10.1,40,-99.99,,,0.00,wxRedirect v1.1,2013-03-19 14:41:00,
2013-03-19 09:47:00,44.2,21.4,30.17,ESE,112,3.4,3.4,40,-99.99,,,0.00,wxRedirect v1.1,2013-03-19 14:47:00,
2013-03-19 09:52:00,45.0,21.4,30.17,East,90,6.7,6.7,39,-99.99,,,0.00,wxRedirect v1.1,2013-03-19 14:52:00,
2013-03-19 09:57:00,45.5,21.9,30.17,South,180,8.3,8.3,39,-99.99,,,0.00,wxRedirect v1.1,2013-03-19 14:57:00,
2013-03-19 10:03:00,46.2,21.9,30.17,SSE,157,5.8,8.3,38,-99.99,,,0.00,wxRedirect v1.1,2013-03-19 15:03:00,
2013-03-19 10:08:00,46.6,21.5,30.17,SE,135,4.0,6.3,37,-99.99,,,0.00,wxRedirect v1.1,2013-03-19 15:08:00,
2013-03-19 10:13:00,46.8,21.7,30.17,SE,135,3.4,7.2,37,-99.99,,,0.00,wxRedirect v1.1,2013-03-19 15:13:00,
2013-03-19 10:19:00,47.1,22.0,30.17,SE,135,4.7,7.2,37,-99.99,,,0.00,wxRedirect v1.1,2013-03-19 15:19:00,
2013-03-19 10:24:00,47.3,22.2,30.17,SE,135,6.9,6.9,37,-99.99,,,0.00,wxRedirect v1.1,2013-03-19 15:24:00,
2013-03-19 10:29:00,47.8,22.0,30.17,East,90,13.2,13.2,36,-99.99,,,0.00,wxRedirect v1.1,2013-03-19 15:29:00,
2013-03-19 10:35:00,48.0,21.5,30.16,East,90,8.3,13.2,35,-99.99,,,0.00,wxRedirect v1.1,2013-03-19 15:35:00,
2013-03-19 10:40:00,48.4,22.5,30.17,ESE,112,6.0,12.3,36,-99.99,,,0.00,wxRedirect v1.1,2013-03-19 15:40:00,
2013-03-19 10:45:00,48.6,22.0,30.17,ESE,112,1.8,6.0,35,-99.99,,,0.00,wxRedirect v1.1,2013-03-19 15:45:00,
2013-03-19 10:50:00,48.9,22.3,30.17,ESE,112,6.5,6.5,35,-99.99,,,0.00,wxRedirect v1.1,2013-03-19 15:50:00,
2013-03-19 10:56:00,49.3,22.6,30.17,SSE,157,11.4,11.4,35,-99.99,,,0.00,wxRedirect v1.1,2013-03-19 15:56:00,
2013-03-19 11:02:00,49.1,21.7,30.17,SE,135,9.6,11.6,34,-99.99,,,0.00,wxRedirect v1.1,2013-03-19 16:02:00,
2013-03-19 11:07:00,48.9,22.3,30.17,ENE,67,4.0,11.6,35,-99.99,,,0.00,wxRedirect v1.1,2013-03-19 16:07:00,
2013-03-19 11:12:00,49.1,22.4,30.17,SSE,157,8.9,9.2,35,-99.99,,,0.00,wxRedirect v1.1,2013-03-19 16:12:00,
2013-03-19 11:18:00,49.5,22.6,30.17,SSE,157,8.9,9.2,35,-99.99,,,0.00,wxRedirect v1.1,2013-03-19 16:18:00,
2013-03-19 11:23:00,49.1,22.4,30.17,SE,135,11.6,11.6,35,-99.99,,,0.00,wxRedirect v1.1,2013-03-19 16:23:00,
2013-03-19 11:28:00,49.1,21.7,30.17,SE,135,11.6,11.6,34,-99.99,,,0.00,wxRedirect v1.1,2013-03-19 16:28:00,
2013-03-19 11:34:00,50.2,23.3,30.16,SE,135,15.0,15.0,35,-99.99,,,0.00,wxRedirect v1.1,2013-03-19 16:34:00,
2013-03-19 11:39:00,50.4,23.5,30.16,SSE,157,13.2,15.0,35,-99.99,,,0.00,wxRedirect v1.1,2013-03-19 16:39:00,
2013-03-19 11:44:00,50.7,23.8,30.16,ESE,112,5.4,13.2,35,-99.99,,,0.00,wxRedirect v1.1,2013-03-19 16:44:00,
2013-03-19 11:50:00,51.1,23.5,30.17,SE,135,7.8,11.6,34,-99.99,,,0.00,wxRedirect v1.1,2013-03-19 16:50:00,
2013-03-19 11:55:00,51.4,23.1,30.17,SE,135,6.5,11.2,33,-99.99,,,0.00,wxRedirect v1.1,2013-03-19 16:55:00,
2013-03-19 12:00:00,51.3,23.6,30.17,SE,135,9.2,10.1,34,-99.99,,,0.00,wxRedirect v1.1,2013-03-19 17:00:00,
2013-03-19 12:06:00,51.6,23.3,30.16,SE,135,11.2,11.2,33,-99.99,,,0.00,wxRedirect v1.1,2013-03-19 17:06:00,
2013-03-19 12:11:00,51.8,23.4,30.17,SE,135,8.1,11.9,33,-99.99,,,0.00,wxRedirect v1.1,2013-03-19 17:11:00,
2013-03-19 12:17:00,52.2,23.8,30.17,SSE,157,10.3,11.9,33,-99.99,,,0.00,wxRedirect v1.1,2013-03-19 17:17:00,
2013-03-19 12:22:00,52.3,23.9,30.16,SE,135,13.9,13.9,33,-99.99,,,0.00,wxRedirect v1.1,2013-03-19 17:22:00,
2013-03-19 12:27:00,52.5,24.1,30.16,SE,135,13.9,13.9,33,-99.99,,,0.00,wxRedirect v1.1,2013-03-19 17:27:00,
2013-03-19 12:33:00,52.0,23.6,30.17,SE,135,8.7,13.9,33,-99.99,,,0.00,wxRedirect v1.1,2013-03-19 17:33:00,
2013-03-19 12:38:00,52.7,24.2,30.17,SSE,157,8.9,13.9,33,-99.99,,,0.00,wxRedirect v1.1,2013-03-19 17:38:00,
2013-03-19 12:43:00,53.2,24.7,30.17,SSE,157,11.6,11.6,33,-99.99,,,0.00,wxRedirect v1.1,2013-03-19 17:43:00,
2013-03-19 12:49:00,53.4,24.2,30.17,ESE,112,5.4,11.6,32,-99.99,,,0.00,wxRedirect v1.1,2013-03-19 17:49:00,
2013-03-19 12:54:00,53.4,24.2,30.17,SE,135,9.2,11.0,32,-99.99,,,0.00,wxRedirect v1.1,2013-03-19 17:54:00,
2013-03-19 12:59:00,53.8,23.8,30.17,SSE,157,5.1,9.2,31,-99.99,,,0.00,wxRedirect v1.1,2013-03-19 17:59:00,
2013-03-19 13:05:00,53.8,23.8,30.17,ENE,67,10.1,12.3,31,-99.99,,,0.00,wxRedirect v1.1,2013-03-19 18:05:00,
2013-03-19 13:10:00,54.1,24.1,30.17,SSE,157,11.2,12.3,31,-99.99,,,0.00,wxRedirect v1.1,2013-03-19 18:10:00,
2013-03-19 13:15:00,54.5,24.4,30.17,SE,135,0.0,11.6,31,-99.99,,,0.00,wxRedirect v1.1,2013-03-19 18:15:00,
2013-03-19 13:21:00,54.7,24.5,30.17,SE,135,8.1,8.1,31,-99.99,,,0.00,wxRedirect v1.1,2013-03-19 18:21:00,
2013-03-19 13:26:00,54.9,24.7,30.17,SSE,157,10.1,10.1,31,-99.99,,,0.00,wxRedirect v1.1,2013-03-19 18:26:00,
2013-03-19 13:31:00,55.2,25.0,30.17,SE,135,1.1,10.1,31,-99.99,,,0.00,wxRedirect v1.1,2013-03-19 18:31:00,
2013-03-19 13:37:00,55.6,25.3,30.17,SE,135,8.1,8.1,31,-99.99,,,0.00,wxRedirect v1.1,2013-03-19 18:37:00,
2013-03-19 13:42:00,55.9,25.6,30.17,East,90,12.3,12.3,31,-99.99,,,0.00,wxRedirect v1.1,2013-03-19 18:42:00,
2013-03-19 13:47:00,55.8,24.8,30.17,SSE,157,9.8,12.3,30,-99.99,,,0.00,wxRedirect v1.1,2013-03-19 18:47:00,
2013-03-19 13:52:00,55.9,25.6,30.17,SSE,157,0.0,12.3,31,-99.99,,,0.00,wxRedirect v1.1,2013-03-19 18:52:00,
2013-03-19 13:57:00,56.1,25.8,30.16,SSE,157,0.7,9.8,31,-99.99,,,0.00,wxRedirect v1.1,2013-03-19 18:57:00,
2013-03-19 14:03:00,56.5,25.4,30.17,SSE,157,6.7,6.7,30,-99.99,,,0.00,wxRedirect v1.1,2013-03-19 19:03:00,
2013-03-19 14:08:00,56.1,25.1,30.16,SE,135,0.0,6.7,30,-99.99,,,0.00,wxRedirect v1.1,2013-03-19 19:08:00,
2013-03-19 14:13:00,55.9,24.9,30.16,ESE,112,0.0,6.7,30,-99.99,,,0.00,wxRedirect v1.1,2013-03-19 19:13:00,
2013-03-19 14:19:00,56.1,25.1,30.15,SE,135,0.0,2.0,30,-99.99,,,0.00,wxRedirect v1.1,2013-03-19 19:19:00,
2013-03-19 14:24:00,56.5,26.1,30.16,SSW,202,3.1,9.4,31,-99.99,,,0.00,wxRedirect v1.1,2013-03-19 19:24:00,
2013-03-19 14:29:00,56.8,26.4,30.15,West,270,1.3,9.4,31,-99.99,,,0.00,wxRedirect v1.1,2013-03-19 19:29:00,
2013-03-19 14:35:00,57.4,26.9,30.15,SSW,202,1.8,4.5,31,-99.99,,,0.00,wxRedirect v1.1,2013-03-19 19:35:00,
2013-03-19 14:40:00,57.7,27.2,30.15,WSW,247,0.0,4.5,31,-99.99,,,0.00,wxRedirect v1.1,2013-03-19 19:40:00,
2013-03-19 14:45:00,57.7,27.2,30.15,South,180,6.3,6.3,31,-99.99,,,0.00,wxRedirect v1.1,2013-03-19 19:45:00,
2013-03-19 14:51:00,57.9,27.4,30.15,SW,225,4.7,6.3,31,-99.99,,,0.00,wxRedirect v1.1,2013-03-19 19:51:00,
2013-03-19 14:56:00,57.9,26.7,30.14,South,180,7.6,7.6,30,-99.99,,,0.00,wxRedirect v1.1,2013-03-19 19:56:00,
2013-03-19 15:02:00,57.7,26.5,30.14,ESE,112,1.3,10.7,30,-99.99,,,0.00,wxRedirect v1.1,2013-03-19 20:02:00,
2013-03-19 15:07:00,57.6,26.4,30.14,SSW,202,1.3,10.7,30,-99.99,,,0.00,wxRedirect v1.1,2013-03-19 20:07:00,
2013-03-19 15:12:00,57.4,26.9,30.14,SSE,157,3.1,4.7,31,-99.99,,,0.00,wxRedirect v1.1,2013-03-19 20:12:00,
2013-03-19 15:17:00,56.8,26.4,30.14,SSE,157,3.1,7.4,31,-99.99,,,0.00,wxRedirect v1.1,2013-03-19 20:17:00,
2013-03-19 15:23:00,57.4,26.9,30.14,SSE,157,3.4,7.4,31,-99.99,,,0.00,wxRedirect v1.1,2013-03-19 20:23:00,
2013-03-19 15:28:00,57.4,26.9,30.14,South,180,6.3,6.3,31,-99.99,,,0.00,wxRedirect v1.1,2013-03-19 20:28:00,
2013-03-19 15:33:00,57.4,26.9,30.14,South,180,0.0,6.3,31,-99.99,,,0.00,wxRedirect v1.1,2013-03-19 20:33:00,
2013-03-19 15:39:00,57.6,27.1,30.14,ENE,67,0.0,0.0,31,-99.99,,,0.00,wxRedirect v1.1,2013-03-19 20:39:00,
2013-03-19 15:44:00,57.9,27.4,30.14,NNW,337,0.0,1.1,31,-99.99,,,0.00,wxRedirect v1.1,2013-03-19 20:44:00,
2013-03-19 15:50:00,58.1,27.6,30.14,West,270,0.0,1.3,31,-99.99,,,0.00,wxRedirect v1.1,2013-03-19 20:50:00,
2013-03-19 15:55:00,58.6,28.1,30.14,West,270,1.1,1.3,31,-99.99,,,0.00,wxRedirect v1.1,2013-03-19 20:55:00,
2013-03-19 16:00:00,58.8,28.2,30.14,WSW,247,0.0,1.8,31,-99.99,,,0.00,wxRedirect v1.1,2013-03-19 21:00:00,
2013-03-19 16:06:00,58.8,28.2,30.14,WSW,247,0.0,1.8,31,-99.99,,,0.00,wxRedirect v1.1,2013-03-19 21:06:00,
2013-03-19 16:11:00,58.8,27.5,30.14,WSW,247,1.8,1.8,30,-99.99,,,0.00,wxRedirect v1.1,2013-03-19 21:11:00,
2013-03-19 16:16:00,58.6,27.4,30.14,NNW,337,5.4,5.4,30,-99.99,,,0.00,wxRedirect v1.1,2013-03-19 21:16:00,
2013-03-19 16:22:00,58.5,27.9,30.14,NNE,22,3.4,5.4,31,-99.99,,,0.00,wxRedirect v1.1,2013-03-19 21:22:00,
2013-03-19 16:27:00,57.7,27.2,30.14,NNE,22,1.3,5.4,31,-99.99,,,0.00,wxRedirect v1.1,2013-03-19 21:27:00,
2013-03-19 16:32:00,58.3,27.7,30.14,NNE,22,4.0,5.4,31,-99.99,,,0.00,wxRedirect v1.1,2013-03-19 21:32:00,
2013-03-19 16:37:00,58.3,27.7,30.14,NNE,22,0.0,4.0,31,-99.99,,,0.00,wxRedirect v1.1,2013-03-19 21:37:00,
2013-03-19 16:42:00,58.5,27.9,30.14,NNE,22,0.0,3.8,31,-99.99,,,0.00,wxRedirect v1.1,2013-03-19 21:42:00,
2013-03-19 16:48:00,58.3,27.7,30.15,NNE,22,2.2,4.5,31,-99.99,,,0.00,wxRedirect v1.1,2013-03-19 21:48:00,
2013-03-19 16:53:00,58.1,27.6,30.15,NE,45,8.3,8.3,31,-99.99,,,0.00,wxRedirect v1.1,2013-03-19 21:53:00,
2013-03-19 16:58:00,57.6,27.1,30.15,NNE,22,5.4,8.3,31,-99.99,,,0.00,wxRedirect v1.1,2013-03-19 21:58:00,
2013-03-19 17:04:00,57.6,27.1,30.15,NNE,22,0.4,6.9,31,-99.99,,,0.00,wxRedirect v1.1,2013-03-19 22:04:00,
2013-03-19 17:09:00,57.4,26.2,30.15,NNE,22,0.0,5.4,30,-99.99,,,0.00,wxRedirect v1.1,2013-03-19 22:09:00,
2013-03-19 17:14:00,57.4,26.9,30.15,NE,45,2.9,2.9,31,-99.99,,,0.00,wxRedirect v1.1,2013-03-19 22:14:00,
2013-03-19 17:20:00,57.0,26.6,30.15,NE,45,0.0,2.9,31,-99.99,,,0.00,wxRedirect v1.1,2013-03-19 22:20:00,
2013-03-19 17:25:00,56.5,26.1,30.15,NE,45,0.0,2.5,31,-99.99,,,0.00,wxRedirect v1.1,2013-03-19 22:25:00,
2013-03-19 17:30:00,55.9,25.1,30.14,NE,45,7.4,9.8,30,-99.99,,,0.00,wxRedirect v1.1,2013-03-19 22:30:00,
2013-03-19 17:36:00,55.6,24.6,30.14,NE,45,7.4,9.8,30,-99.99,,,0.00,wxRedirect v1.1,2013-03-19 22:36:00,
2013-03-19 17:42:00,54.7,23.9,30.14,East,90,7.4,7.4,33,-99.99,,,0.00,wxRedirect v1.1,2013-03-19 22:42:00,
2013-03-19 17:47:00,54.1,26.2,30.14,East,90,4.7,11.9,34,-99.99,,,0.00,wxRedirect v1.1,2013-03-19 22:47:00,
2013-03-19 17:52:00,53.8,25.9,30.15,East,90,11.9,11.9,34,-99.99,,,0.00,wxRedirect v1.1,2013-03-19 22:52:00,
2013-03-19 17:57:00,53.2,26.1,30.14,ENE,67,3.8,11.9,35,-99.99,,,0.00,wxRedirect v1.1,2013-03-19 22:57:00,
2013-03-19 18:02:00,52.9,25.4,30.15,East,90,8.1,11.9,35,-99.99,,,0.00,wxRedirect v1.1,2013-03-19 23:02:00,
2013-03-19 18:08:00,52.3,26.0,30.15,NE,45,3.8,10.5,36,-99.99,,,0.00,wxRedirect v1.1,2013-03-19 23:08:00,
2013-03-19 18:13:00,51.6,25.3,30.15,NE,45,5.1,8.1,36,-99.99,,,0.00,wxRedirect v1.1,2013-03-19 23:13:00,
2013-03-19 18:18:00,51.1,25.5,30.15,NNE,22,4.0,5.1,37,-99.99,,,0.00,wxRedirect v1.1,2013-03-19 23:18:00,
2013-03-19 18:24:00,50.4,24.9,30.15,East,90,11.4,11.4,37,-99.99,,,0.00,wxRedirect v1.1,2013-03-19 23:24:00,
2013-03-19 18:29:00,50.5,25.7,30.16,ENE,67,6.9,11.4,38,-99.99,,,0.00,wxRedirect v1.1,2013-03-19 23:29:00,
2013-03-19 18:34:00,50.4,25.6,30.16,ENE,67,8.5,10.5,38,-99.99,,,0.00,wxRedirect v1.1,2013-03-19 23:34:00,
2013-03-19 18:40:00,49.8,25.1,30.15,ENE,67,6.9,10.5,38,-99.99,,,0.00,wxRedirect v1.1,2013-03-19 23:40:00,
2013-03-19 18:45:00,49.8,25.1,30.16,NE,45,2.9,6.9,38,-99.99,,,0.00,wxRedirect v1.1,2013-03-19 23:45:00,
2013-03-19 18:50:00,49.6,25.6,30.16,East,90,4.9,6.5,39,-99.99,,,0.00,wxRedirect v1.1,2013-03-19 23:50:00,
2013-03-19 18:56:00,49.5,25.4,30.16,ENE,67,8.1,11.6,39,-99.99,,,0.00,wxRedirect v1.1,2013-03-19 23:56:00,
2013-03-19 19:01:00,49.1,25.1,30.17,NE,45,11.9,11.9,39,-99.99,,,0.00,wxRedirect v1.1,2013-03-20 00:01:00,
2013-03-19 19:06:00,48.7,24.8,30.17,ENE,67,8.3,11.9,39,-99.99,,,0.00,wxRedirect v1.1,2013-03-20 00:06:00,
2013-03-19 19:12:00,48.4,25.1,30.17,ENE,67,6.9,13.9,40,-99.99,,,0.00,wxRedirect v1.1,2013-03-20 00:12:00,
2013-03-19 19:17:00,47.5,24.3,30.18,ENE,67,3.4,13.9,40,-99.99,,,0.00,wxRedirect v1.1,2013-03-20 00:17:00,
2013-03-19 19:22:00,47.7,25.0,30.18,ENE,67,3.6,5.4,41,-99.99,,,0.00,wxRedirect v1.1,2013-03-20 00:22:00,
2013-03-19 19:28:00,47.5,24.9,30.18,East,90,0.0,6.0,41,-99.99,,,0.00,wxRedirect v1.1,2013-03-20 00:28:00,
2013-03-19 19:33:00,47.3,24.7,30.18,ENE,67,2.9,7.2,41,-99.99,,,0.00,wxRedirect v1.1,2013-03-20 00:33:00,
2013-03-19 19:38:00,46.8,24.8,30.19,NE,45,1.6,7.2,42,-99.99,,,0.00,wxRedirect v1.1,2013-03-20 00:38:00,
2013-03-19 19:44:00,46.9,24.9,30.19,ENE,67,6.7,6.7,42,-99.99,,,0.00,wxRedirect v1.1,2013-03-20 00:44:00,
2013-03-19 19:49:00,46.6,25.1,30.19,ENE,67,3.8,6.7,43,-99.99,,,0.00,wxRedirect v1.1,2013-03-20 00:49:00,
2013-03-19 19:54:00,46.2,25.4,30.19,ENE,67,5.1,8.7,44,-99.99,,,0.00,wxRedirect v1.1,2013-03-20 00:54:00,
2013-03-19 20:00:00,46.2,25.4,30.20,NE,45,10.3,10.3,44,-99.99,,,0.00,wxRedirect v1.1,2013-03-20 01:00:00,
2013-03-19 20:05:00,46.0,25.7,30.20,East,90,4.9,10.3,45,-99.99,,,0.00,wxRedirect v1.1,2013-03-20 01:05:00,
2013-03-19 20:10:00,45.7,25.4,30.21,ENE,67,5.4,6.9,45,-99.99,,,0.00,wxRedirect v1.1,2013-03-20 01:10:00,
2013-03-19 20:16:00,45.5,25.8,30.21,NE,45,4.7,6.9,46,-99.99,,,0.00,wxRedirect v1.1,2013-03-20 01:16:00,
2013-03-19 20:21:00,45.3,25.6,30.21,ENE,67,4.3,5.6,46,-99.99,,,0.00,wxRedirect v1.1,2013-03-20 01:21:00,
2013-03-19 20:27:00,45.1,26.5,30.22,ESE,112,4.3,5.1,48,-99.99,,,0.00,wxRedirect v1.1,2013-03-20 01:27:00,
2013-03-19 20:32:00,45.0,26.4,30.22,ENE,67,7.6,8.1,48,-99.99,,,0.00,wxRedirect v1.1,2013-03-20 01:32:00,
2013-03-19 20:37:00,44.4,26.4,30.22,East,90,5.1,8.1,49,-99.99,,,0.00,wxRedirect v1.1,2013-03-20 01:37:00,
2013-03-19 20:43:00,44.4,27.0,30.22,East,90,5.1,8.1,50,-99.99,,,0.00,wxRedirect v1.1,2013-03-20 01:43:00,
2013-03-19 20:48:00,44.2,26.8,30.23,ESE,112,4.3,9.4,50,-99.99,,,0.00,wxRedirect v1.1,2013-03-20 01:48:00,
2013-03-19 20:53:00,44.1,27.1,30.23,East,90,0.7,9.4,51,-99.99,,,0.00,wxRedirect v1.1,2013-03-20 01:53:00,
2013-03-19 20:59:00,43.7,27.2,30.23,ENE,67,15.0,15.0,52,-99.99,,,0.00,wxRedirect v1.1,2013-03-20 01:59:00,
2013-03-19 21:04:00,43.5,27.0,30.24,ENE,67,8.3,15.0,52,-99.99,,,0.00,wxRedirect v1.1,2013-03-20 02:04:00,
2013-03-19 21:09:00,43.0,27.0,30.24,ENE,67,6.9,8.3,53,-99.99,,,0.00,wxRedirect v1.1,2013-03-20 02:09:00,
2013-03-19 21:15:00,43.2,27.6,30.25,ESE,112,9.6,9.6,54,-99.99,,,0.00,wxRedirect v1.1,2013-03-20 02:15:00,
2013-03-19 21:20:00,43.0,27.8,30.25,ENE,67,6.0,9.6,55,-99.99,,,0.00,wxRedirect v1.1,2013-03-20 02:20:00,
2013-03-19 21:25:00,42.6,27.5,30.24,ENE,67,3.6,6.0,55,-99.99,,,0.00,wxRedirect v1.1,2013-03-20 02:25:00,
2013-03-19 21:31:00,42.4,27.8,30.25,East,90,0.0,5.1,56,-99.99,,,0.00,wxRedirect v1.1,2013-03-20 02:31:00,
2013-03-19 21:36:00,42.3,27.6,30.25,ENE,67,5.6,7.4,56,-99.99,,,0.00,wxRedirect v1.1,2013-03-20 02:36:00,
2013-03-19 21:41:00,41.9,27.7,30.24,ENE,67,3.8,7.4,57,-99.99,,,0.00,wxRedirect v1.1,2013-03-20 02:41:00,
2013-03-19 21:47:00,41.7,27.5,30.23,East,90,1.8,5.4,57,-99.99,,,0.00,wxRedirect v1.1,2013-03-20 02:47:00,
2013-03-19 21:52:00,41.5,27.8,30.22,ENE,67,6.3,6.9,58,-99.99,,,0.00,wxRedirect v1.1,2013-03-20 02:52:00,
2013-03-19 21:57:00,41.2,27.5,30.22,East,90,6.0,6.9,58,-99.99,,,0.00,wxRedirect v1.1,2013-03-20 02:57:00,
2013-03-19 22:02:00,40.8,27.6,30.23,East,90,5.8,6.3,59,-99.99,,,0.00,wxRedirect v1.1,2013-03-20 03:02:00,
2013-03-19 22:08:00,40.6,27.4,30.23,East,90,4.5,5.8,59,-99.99,,,0.00,wxRedirect v1.1,2013-03-20 03:08:00,
2013-03-19 22:13:00,40.6,27.9,30.24,ENE,67,5.1,5.8,60,-99.99,,,0.00,wxRedirect v1.1,2013-03-20 03:13:00,
2013-03-19 22:18:00,40.3,27.5,30.23,SE,135,5.4,6.9,60,-99.99,,,0.00,wxRedirect v1.1,2013-03-20 03:18:00,
2013-03-19 22:24:00,40.3,27.5,30.23,ESE,112,2.9,6.9,60,-99.99,,,0.00,wxRedirect v1.1,2013-03-20 03:24:00,
2013-03-19 22:29:00,40.1,27.3,30.23,ENE,67,0.0,6.5,60,-99.99,,,0.00,wxRedirect v1.1,2013-03-20 03:29:00,
2013-03-19 22:34:00,39.7,27.0,30.24,ESE,112,4.0,6.5,60,-99.99,,,0.00,wxRedirect v1.1,2013-03-20 03:34:00,
2013-03-19 22:40:00,39.9,27.1,30.24,ESE,112,6.5,6.5,60,-99.99,,,0.00,wxRedirect v1.1,2013-03-20 03:40:00,
2013-03-19 22:45:00,39.6,26.8,30.24,ESE,112,4.3,6.5,60,-99.99,,,0.00,wxRedirect v1.1,2013-03-20 03:45:00,
2013-03-19 22:50:00,39.9,27.1,30.24,East,90,2.9,5.4,60,-99.99,,,0.00,wxRedirect v1.1,2013-03-20 03:50:00,
2013-03-19 22:56:00,39.9,27.1,30.24,ESE,112,0.0,4.7,60,-99.99,,,0.00,wxRedirect v1.1,2013-03-20 03:56:00,
2013-03-19 23:00:00,39.9,27.1,30.24,ESE,112,3.1,3.1,60,-99.99,,,0.00,wxRedirect v1.1,2013-03-20 04:00:00,
2013-03-19 23:03:00,39.9,27.1,30.25,ESE,112,0.0,5.6,60,-99.99,,,0.00,wxRedirect v1.1,2013-03-20 04:03:00,
2013-03-19 23:04:00,39.9,27.1,30.25,ESE,112,0.0,5.6,60,-99.99,,,0.00,wxRedirect v1.1,2013-03-20 04:04:00,
2013-03-19 23:09:00,39.7,27.0,30.25,ESE,112,2.5,5.6,60,-99.99,,,0.00,wxRedirect v1.1,2013-03-20 04:09:00,
2013-03-19 23:15:00,39.7,27.0,30.25,ESE,112,0.0,2.5,60,-99.99,,,0.00,wxRedirect v1.1,2013-03-20 04:15:00,
2013-03-19 23:20:00,39.7,27.0,30.25,ESE,112,0.0,0.0,60,-99.99,,,0.00,wxRedirect v1.1,2013-03-20 04:20:00,
2013-03-19 23:25:00,39.7,27.3,30.26,SE,135,0.0,0.0,61,-99.99,,,0.00,wxRedirect v1.1,2013-03-20 04:25:00,
2013-03-19 23:31:00,39.7,27.0,30.26,SE,135,0.0,0.0,60,-99.99,,,0.00,wxRedirect v1.1,2013-03-20 04:31:00,
2013-03-19 23:37:00,39.7,27.3,30.25,SE,135,0.0,0.0,61,-99.99,,,0.00,wxRedirect v1.1,2013-03-20 04:37:00,
2013-03-19 23:42:00,39.7,27.3,30.26,SE,135,0.0,0.0,61,-99.99,,,0.00,wxRedirect v1.1,2013-03-20 04:42:00,
2013-03-19 23:47:00,39.7,27.3,30.26,SE,135,0.0,0.0,61,-99.99,,,0.00,wxRedirect v1.1,2013-03-20 04:47:00,
2013-03-19 23:53:00,39.7,27.0,30.26,SE,135,0.0,0.0,60,-99.99,,,0.00,wxRedirect v1.1,2013-03-20 04:53:00,
2013-03-19 23:58:00,39.7,27.0,30.26,SE,135,0.0,0.0,60,-99.99,,,0.00,wxRedirect v1.1,2013-03-20 04:58:00,